LFMC 301030Z AUTO 33004KT 270V030 9999 ////// 23/10 Q1016

ElémentsDécodage
LFMC Station météo située sur l'aérodrome de LE-LUC Le-Cannet
301030Z émis le 30 du mois à 10h30 UTC
AUTO Bulletin édité par un automate
33004KT vent du 330°, 04 noeuds
270V030 vent de direction variable entre 270° et 030°
9999 visibilité horizontale supérieure à 10 Km
////// nébulosité (type et hauteur) non disponible
 type de nuage non observable
23/10 température 23°C, point de rosée 10°C
 soit une humidité relative de 44%
Q1016 la pression au niveau de la mer (QNH) est de 1016 hPa